Terminal Aerodrome Forecast
Issued by NWS

Home | Current Version | Previous Version | Text Only | Print | Product List | Glossary On
Versions: 1 2 3 4 5 6 7 8 9 10 11 12 13 14 15
000
FTUS46 KSEW 010527
TAFBLI
TAF
KBLI 010527Z 0106/0206 00000KT P6SM SKC
     FM012000 29007KT P6SM SKC
     FM020300 18003KT P6SM SKC=

USA.gov is the U.S. government's official web portal to all federal, state and local government web resources and services.